Akron, New York
Current Conditions -  °F | °C
As of 7:54 AM on Saturday 25 Oct 2014 (Local Time) from KBUF Reporting Station
Broken Clouds Broken Clouds  
Wind Chill: 54°   Ceiling: 1600
Heat Index: 54°   Visibility: 8mi
Dew Point: 49°   Wind: 10mph
Humidity: 83%   Direction: 220°SW
Pressure: 29.83"   Gusts: NA
Location:  43.02°N, 78.5°W
Report Text: KBUF 251154Z 22009KT 8SM BKN016 BKN042 BKN120 BKN220 12/09 A2983 RMK AO2 SLP103 T01220094 10128 20106 56010
Loading
Personal Weather Stations






























Interactive Weather Map New forecast layout! Learn more

10-Day Weather Forecast

Advertisements
Track Severe Weather on mobile